RJCA(METAR)
02/28 07:00
METAR RJCA 272200Z 17003KT 9999 FEW030 BKN040 M10/M14 Q1027 RMK
1SC030 6SC040 A3035=
戻る
トップページへ戻る
IMOC Co,.Ltd.